createdAt,value
2022-08-23T00:01:26.405Z,1.23
2022-08-23T00:03:58.146Z,1.13
2022-08-23T00:06:25.013Z,1.40
2022-08-23T00:08:52.797Z,1.50
2022-08-23T00:11:33.525Z,1.40
2022-08-23T00:14:05.761Z,1.60
2022-08-23T00:16:32.354Z,1.35
2022-08-23T00:18:59.461Z,1.43
2022-08-23T00:21:26.124Z,1.43
2022-08-23T00:23:52.700Z,1.67
2022-08-23T00:26:20.785Z,1.63
2022-08-23T00:28:49.788Z,1.90
2022-08-23T00:31:18.835Z,1.50
2022-08-23T00:33:46.142Z,1.93
2022-08-23T00:36:12.720Z,2.13
2022-08-23T00:38:39.466Z,1.73
2022-08-23T00:41:06.322Z,1.47
2022-08-23T00:43:58.256Z,1.70
2022-08-23T00:47:07.191Z,1.57
2022-08-23T00:49:36.067Z,1.60
2022-08-23T00:52:08.928Z,1.77
2022-08-23T00:54:37.880Z,1.80
2022-08-23T00:57:10.808Z,1.80
2022-08-23T00:59:37.654Z,1.67
2022-08-23T01:02:05.463Z,1.50
2022-08-23T01:04:37.893Z,1.50
2022-08-23T01:07:09.190Z,1.70
2022-08-23T01:09:38.020Z,1.50
2022-08-23T01:12:16.065Z,1.83
2022-08-23T01:14:54.258Z,2.07
2022-08-23T01:17:30.082Z,1.70
2022-08-23T01:20:03.845Z,1.87
2022-08-23T01:22:41.425Z,1.50
2022-08-23T01:25:11.549Z,2.00
2022-08-23T01:27:39.613Z,2.00
2022-08-23T01:30:09.983Z,1.40
2022-08-23T01:32:44.457Z,1.57
2022-08-23T01:35:11.553Z,1.57
2022-08-23T01:37:38.617Z,1.23
2022-08-23T01:40:06.339Z,1.40
2022-08-23T01:42:32.975Z,1.50
2022-08-23T01:44:59.681Z,1.43
2022-08-23T01:47:26.235Z,1.50
2022-08-23T01:49:52.963Z,1.30
2022-08-23T01:52:19.651Z,1.63
2022-08-23T01:54:46.673Z,1.60
2022-08-23T01:57:13.508Z,1.70
2022-08-23T01:59:40.225Z,1.63
2022-08-23T02:02:06.829Z,1.50
2022-08-23T02:04:33.459Z,1.60
2022-08-23T02:07:00.041Z,1.60
2022-08-23T02:09:26.625Z,1.40
2022-08-23T02:11:54.893Z,1.40
2022-08-23T02:14:21.800Z,1.60
2022-08-23T02:17:03.905Z,1.40
2022-08-23T02:19:35.632Z,1.73
2022-08-23T02:22:03.570Z,1.50
2022-08-23T02:24:31.524Z,1.73
2022-08-23T02:27:02.271Z,1.53
2022-08-23T02:29:29.945Z,1.60
2022-08-23T02:31:58.876Z,1.33
2022-08-23T02:34:36.686Z,2.00
2022-08-23T02:37:03.669Z,1.63
2022-08-23T02:39:30.495Z,1.33
2022-08-23T02:41:57.786Z,2.13
2022-08-23T02:44:24.673Z,1.63
2022-08-23T02:46:51.441Z,1.63
2022-08-23T02:49:18.301Z,2.13
2022-08-23T02:51:45.245Z,1.77
2022-08-23T02:54:12.080Z,1.50
2022-08-23T02:56:39.051Z,1.73
2022-08-23T02:59:06.856Z,2.43
2022-08-23T03:01:38.127Z,2.10
2022-08-23T03:04:07.779Z,1.97
2022-08-23T03:06:34.448Z,1.97
2022-08-23T03:09:01.528Z,1.70
2022-08-23T03:11:28.518Z,2.00
2022-08-23T03:13:56.521Z,2.27
2022-08-23T03:16:24.796Z,1.67
2022-08-23T03:18:52.365Z,1.70
2022-08-23T03:21:20.646Z,1.80
2022-08-23T03:23:47.327Z,1.50
2022-08-23T03:26:14.819Z,1.50
2022-08-23T03:28:44.095Z,1.73
2022-08-23T03:31:12.482Z,1.40
2022-08-23T03:33:39.505Z,1.77
2022-08-23T03:36:08.031Z,1.50
2022-08-23T03:38:36.301Z,1.33
2022-08-23T03:41:03.077Z,1.67
2022-08-23T03:43:29.904Z,1.80
2022-08-23T03:45:57.160Z,1.97
2022-08-23T03:48:25.046Z,1.83
2022-08-23T03:50:54.580Z,1.43
2022-08-23T03:53:23.839Z,1.83
2022-08-23T03:55:52.133Z,1.60
2022-08-23T03:58:21.706Z,2.00
2022-08-23T04:00:48.908Z,1.40
2022-08-23T04:03:15.497Z,1.47
2022-08-23T04:05:42.272Z,1.50
2022-08-23T04:08:11.272Z,1.30
2022-08-23T04:10:39.407Z,1.50
2022-08-23T04:13:07.238Z,1.50
2022-08-23T04:15:33.827Z,1.53
2022-08-23T04:18:00.994Z,1.37
2022-08-23T04:20:28.925Z,1.20
2022-08-23T04:22:56.490Z,1.30
2022-08-23T04:25:34.802Z,1.20
2022-08-23T04:28:02.548Z,1.37
2022-08-23T04:30:29.863Z,1.40
2022-08-23T04:32:57.463Z,1.33
2022-08-23T04:35:25.679Z,1.50
2022-08-23T04:37:53.016Z,1.63
2022-08-23T04:40:38.006Z,1.70
2022-08-23T04:43:04.881Z,1.60
2022-08-23T04:45:32.607Z,1.73
2022-08-23T04:47:59.498Z,2.07
2022-08-23T04:50:26.202Z,1.43
2022-08-23T04:52:53.177Z,1.53
2022-08-23T04:55:20.317Z,1.53
2022-08-23T04:57:46.823Z,1.50
2022-08-23T05:00:14.747Z,1.60
2022-08-23T05:02:41.494Z,1.50
2022-08-23T05:05:11.323Z,1.20
2022-08-23T05:07:42.505Z,1.20
2022-08-23T05:10:13.055Z,1.20
2022-08-23T05:12:40.237Z,1.40
2022-08-23T05:15:09.311Z,1.30
2022-08-23T05:17:36.807Z,1.30
2022-08-23T05:20:05.158Z,1.20
2022-08-23T05:22:38.941Z,1.67
2022-08-23T05:25:06.242Z,1.60
2022-08-23T05:27:33.363Z,1.90
2022-08-23T05:29:59.940Z,1.30
2022-08-23T05:32:27.699Z,1.40
2022-08-23T05:34:57.068Z,1.40
2022-08-23T05:37:23.695Z,1.47
2022-08-23T05:39:50.361Z,1.47
2022-08-23T05:42:17.431Z,1.10
2022-08-23T05:44:44.422Z,1.30
2022-08-23T05:47:15.138Z,1.30
2022-08-23T05:49:42.728Z,1.37
2022-08-23T05:52:12.750Z,1.33
2022-08-23T05:54:39.672Z,1.17
2022-08-23T05:57:06.659Z,1.10
2022-08-23T05:59:33.448Z,1.67
2022-08-23T06:02:00.029Z,1.02
2022-08-23T06:04:26.577Z,1.10
2022-08-23T06:06:54.014Z,0.52
2022-08-23T06:09:20.723Z,0.88
2022-08-23T06:11:48.575Z,1.05
2022-08-23T06:14:16.206Z,0.77
2022-08-23T06:16:46.486Z,0.95
2022-08-23T06:19:14.472Z,0.70
2022-08-23T06:21:42.072Z,0.90
2022-08-23T06:24:08.766Z,1.10
2022-08-23T06:26:41.452Z,0.68
2022-08-23T06:29:14.392Z,0.88
2022-08-23T06:31:47.061Z,0.90
2022-08-23T06:34:26.749Z,0.95
2022-08-23T06:36:59.132Z,0.93
2022-08-23T06:39:29.883Z,0.82
2022-08-23T06:42:34.899Z,0.93
2022-08-23T06:44:58.845Z,1.05
2022-08-23T06:47:25.392Z,1.52
2022-08-23T06:49:57.817Z,0.80
2022-08-23T06:52:27.676Z,0.82
2022-08-23T06:54:54.630Z,0.77
2022-08-23T06:57:21.254Z,1.52
2022-08-23T06:59:50.165Z,0.88
2022-08-23T07:02:17.207Z,0.75
2022-08-23T07:04:43.994Z,1.10
2022-08-23T07:07:12.188Z,0.73
2022-08-23T07:09:39.967Z,0.70
2022-08-23T07:12:06.746Z,0.93
2022-08-23T07:14:33.404Z,0.90
2022-08-23T07:17:01.530Z,1.00
2022-08-23T07:19:30.722Z,1.08
2022-08-23T07:21:58.461Z,1.10
2022-08-23T07:24:29.336Z,0.75
2022-08-23T07:26:59.292Z,0.90
2022-08-23T07:29:25.873Z,2.05
2022-08-23T07:31:55.953Z,0.93
2022-08-23T07:34:23.680Z,0.88
2022-08-23T07:36:51.686Z,0.95
2022-08-23T07:39:19.924Z,0.85
2022-08-23T07:41:47.087Z,1.35
2022-08-23T07:44:18.168Z,0.73
2022-08-23T07:46:46.703Z,0.70
2022-08-23T07:49:14.279Z,0.77
2022-08-23T07:51:45.546Z,1.00
2022-08-23T07:54:13.083Z,1.48
2022-08-23T07:56:40.207Z,1.17
2022-08-23T07:59:08.158Z,1.08
2022-08-23T08:01:35.265Z,0.93
2022-08-23T08:04:04.327Z,0.80
2022-08-23T08:06:36.526Z,0.85
2022-08-23T08:09:06.114Z,0.80
2022-08-23T08:11:35.442Z,2.28
2022-08-23T08:14:07.711Z,0.50
2022-08-23T08:16:44.079Z,0.88
2022-08-23T08:19:12.577Z,1.00
2022-08-23T08:21:42.465Z,0.98
2022-08-23T08:24:12.864Z,0.60
2022-08-23T08:26:40.857Z,0.90
2022-08-23T08:29:11.343Z,0.60
2022-08-23T08:31:39.595Z,0.65
2022-08-23T08:34:07.941Z,0.50
2022-08-23T08:36:41.414Z,0.82
2022-08-23T08:39:12.298Z,0.60
2022-08-23T08:41:57.456Z,0.20
2022-08-23T08:44:37.664Z,0.50
2022-08-23T08:47:25.800Z,0.70
2022-08-23T08:50:15.898Z,0.30
2022-08-23T08:52:48.115Z,0.40
2022-08-23T08:55:24.170Z,0.30
2022-08-23T08:57:52.261Z,0.50
2022-08-23T09:00:23.445Z,1.08
2022-08-23T09:02:51.153Z,0.73
2022-08-23T09:05:31.897Z,0.90
2022-08-23T09:08:34.451Z,0.55
2022-08-23T09:11:47.220Z,0.60
2022-08-23T09:14:27.350Z,0.47
2022-08-23T09:17:07.464Z,0.60
2022-08-23T09:19:38.160Z,0.68
2022-08-23T09:22:11.146Z,0.45
2022-08-23T09:24:37.708Z,0.50
2022-08-23T09:27:04.472Z,0.40
2022-08-23T09:29:33.182Z,1.00
2022-08-23T09:32:06.662Z,0.70
2022-08-23T09:34:35.990Z,0.40
2022-08-23T09:37:09.822Z,0.85
2022-08-23T09:39:39.327Z,0.90
2022-08-23T09:42:26.963Z,0.82
2022-08-23T09:44:54.506Z,0.85
2022-08-23T09:47:30.342Z,0.80
2022-08-23T09:50:06.994Z,0.50
2022-08-23T09:52:37.774Z,0.40
2022-08-23T09:55:35.400Z,0.60
2022-08-23T09:58:15.921Z,0.30
2022-08-23T10:00:43.149Z,0.38
2022-08-23T10:03:27.056Z,0.40
2022-08-23T10:05:56.493Z,0.40
2022-08-23T10:08:32.976Z,0.28
2022-08-23T10:11:12.270Z,0.25
2022-08-23T10:13:43.037Z,0.40
2022-08-23T10:16:26.277Z,0.50
2022-08-23T10:19:18.194Z,0.38
2022-08-23T10:22:01.255Z,0.73
2022-08-23T10:25:02.549Z,0.30
2022-08-23T10:28:19.323Z,0.73
2022-08-23T10:31:06.306Z,0.50
2022-08-23T10:34:00.420Z,0.40
2022-08-23T10:36:33.847Z,0.50
2022-08-23T10:39:18.895Z,1.52
2022-08-23T10:42:19.978Z,0.40
2022-08-23T10:44:53.987Z,0.50
2022-08-23T10:47:37.294Z,0.30
2022-08-23T10:50:08.025Z,0.40
2022-08-23T10:52:45.298Z,0.90
2022-08-23T10:55:35.198Z,0.40
2022-08-23T10:58:05.493Z,0.80
2022-08-23T11:00:34.469Z,0.40
2022-08-23T11:03:32.353Z,0.45
2022-08-23T11:06:32.018Z,0.50
2022-08-23T11:09:28.149Z,0.50
2022-08-23T11:12:14.151Z,0.30
2022-08-23T11:14:47.016Z,0.47
2022-08-23T11:17:35.437Z,0.40
2022-08-23T11:20:08.728Z,0.20
2022-08-23T11:22:57.894Z,0.60
2022-08-23T11:25:24.340Z,0.60
2022-08-23T11:27:50.946Z,0.57
2022-08-23T11:30:32.885Z,0.50
2022-08-23T11:33:21.447Z,0.55
2022-08-23T11:35:50.187Z,0.47
2022-08-23T11:38:38.350Z,0.30
2022-08-23T11:41:19.941Z,1.08
2022-08-23T11:43:57.001Z,0.88
2022-08-23T11:46:24.229Z,0.60
2022-08-23T11:49:12.218Z,0.30
2022-08-23T11:51:44.807Z,0.50
2022-08-23T11:54:29.823Z,0.52
2022-08-23T11:57:28.483Z,0.45
2022-08-23T12:00:27.718Z,0.50
2022-08-23T12:03:05.817Z,0.43
2022-08-23T12:05:38.696Z,0.40
2022-08-23T12:08:05.903Z,0.50
2022-08-23T12:10:41.603Z,0.77
2022-08-23T12:13:19.989Z,0.40
2022-08-23T12:16:16.528Z,0.70
2022-08-23T12:18:49.827Z,0.40
2022-08-23T12:21:22.605Z,0.30
2022-08-23T12:23:52.764Z,0.30
2022-08-23T12:26:44.209Z,0.38
2022-08-23T12:29:33.701Z,0.80
2022-08-23T12:32:12.100Z,0.70
2022-08-23T12:34:55.014Z,0.30
2022-08-23T12:37:39.918Z,0.45
2022-08-23T12:40:15.696Z,0.32
2022-08-23T12:42:42.828Z,0.30
2022-08-23T12:45:17.353Z,0.50
2022-08-23T12:47:56.671Z,0.80
2022-08-23T12:50:55.115Z,0.20
2022-08-23T12:53:32.293Z,0.50
2022-08-23T12:56:08.850Z,0.60
2022-08-23T12:58:39.800Z,0.55
2022-08-23T13:01:17.406Z,0.60
2022-08-23T13:03:48.626Z,0.40
2022-08-23T13:06:21.813Z,0.45
2022-08-23T13:08:57.686Z,0.95
2022-08-23T13:11:27.568Z,0.63
2022-08-23T13:13:55.396Z,0.45
2022-08-23T13:16:36.079Z,0.30
2022-08-23T13:19:30.874Z,0.47
2022-08-23T13:22:19.012Z,0.40
2022-08-23T13:25:28.757Z,0.50
2022-08-23T13:28:00.797Z,0.90
2022-08-23T13:30:33.252Z,0.43
2022-08-23T13:33:07.832Z,0.40
2022-08-23T13:35:36.631Z,0.98
2022-08-23T13:38:21.324Z,0.70
2022-08-23T13:40:59.457Z,0.65
2022-08-23T13:43:27.858Z,0.30
2022-08-23T13:45:57.474Z,0.70
2022-08-23T13:48:34.646Z,0.52
2022-08-23T13:51:30.710Z,1.52
2022-08-23T13:53:59.675Z,0.60
2022-08-23T13:56:28.456Z,0.47
2022-08-23T13:59:18.065Z,0.68
2022-08-23T14:01:45.431Z,0.80
2022-08-23T14:04:12.036Z,0.90
2022-08-23T14:06:38.713Z,0.45
2022-08-23T14:09:06.749Z,1.30
2022-08-23T14:11:34.909Z,0.52
2022-08-23T14:14:01.988Z,0.25
2022-08-23T14:16:34.791Z,0.50
2022-08-23T14:20:31.495Z,0.50
2022-08-23T14:21:51.068Z,1.58
2022-08-23T14:24:20.154Z,0.65
2022-08-23T14:26:50.217Z,0.50
2022-08-23T14:29:21.569Z,0.30
2022-08-23T14:31:50.430Z,0.55
2022-08-23T14:34:17.086Z,0.70
2022-08-23T14:37:21.637Z,0.82
2022-08-23T14:39:30.813Z,0.93
2022-08-23T14:41:57.844Z,0.50
2022-08-23T14:44:25.670Z,0.50
2022-08-23T14:46:54.624Z,0.60
2022-08-23T14:49:22.063Z,0.63
2022-08-23T14:51:50.779Z,0.50
2022-08-23T14:54:21.572Z,1.70
2022-08-23T14:56:48.730Z,1.05
2022-08-23T14:59:15.841Z,0.63
2022-08-23T15:01:42.922Z,0.70
2022-08-23T15:04:10.077Z,0.63
2022-08-23T15:06:36.991Z,0.60
2022-08-23T15:09:04.305Z,0.52
2022-08-23T15:14:17.808Z,0.70
2022-08-23T15:16:44.615Z,0.50
2022-08-23T15:19:11.223Z,1.08
2022-08-23T15:21:37.777Z,0.47
2022-08-23T15:24:04.766Z,0.82
2022-08-23T15:26:32.108Z,1.60
2022-08-23T15:29:00.276Z,0.40
2022-08-23T15:31:27.848Z,0.90
2022-08-23T15:33:54.502Z,1.20
2022-08-23T15:36:21.147Z,1.30
2022-08-23T15:38:49.136Z,0.50
2022-08-23T15:41:19.811Z,0.60
2022-08-23T15:43:46.992Z,0.68
2022-08-23T15:46:21.754Z,0.98
2022-08-23T15:48:54.696Z,0.73
2022-08-23T15:51:21.727Z,1.30
2022-08-23T15:53:48.514Z,0.60
2022-08-23T15:56:21.035Z,0.82
2022-08-23T15:58:48.499Z,0.63
2022-08-23T16:01:15.197Z,1.13
2022-08-23T16:03:43.474Z,0.73
2022-08-23T16:06:12.821Z,0.95
2022-08-23T16:08:42.537Z,0.88
2022-08-23T16:11:12.883Z,0.95
2022-08-23T16:13:45.143Z,0.90
2022-08-23T16:16:23.336Z,1.45
2022-08-23T16:18:51.792Z,0.75
2022-08-23T16:21:18.402Z,0.85
2022-08-23T16:23:45.278Z,0.90
2022-08-23T16:26:22.353Z,0.90
2022-08-23T16:28:57.068Z,1.00
2022-08-23T16:31:39.005Z,0.90
2022-08-23T16:34:09.400Z,0.85
2022-08-23T16:36:36.325Z,0.88
2022-08-23T16:39:03.896Z,1.10
2022-08-23T16:41:30.415Z,1.55
2022-08-23T16:43:56.994Z,1.73
2022-08-23T16:46:24.665Z,1.10
2022-08-23T16:48:51.444Z,0.88
2022-08-23T16:51:18.318Z,1.30
2022-08-23T16:53:44.934Z,1.70
2022-08-23T16:56:29.857Z,1.10
2022-08-23T16:58:56.991Z,1.30
2022-08-23T17:01:23.784Z,1.13
2022-08-23T17:03:50.753Z,1.17
2022-08-23T17:06:18.353Z,1.02
2022-08-23T17:08:45.291Z,1.10
2022-08-23T17:11:15.765Z,1.15
2022-08-23T17:13:42.455Z,1.08
2022-08-23T17:16:10.843Z,1.38
2022-08-23T17:18:38.570Z,1.52
2022-08-23T17:21:05.911Z,1.20
2022-08-23T17:23:33.174Z,1.20
2022-08-23T17:26:06.107Z,1.25
2022-08-23T17:28:32.961Z,1.17
2022-08-23T17:30:59.597Z,1.33
2022-08-23T17:33:26.297Z,1.17
2022-08-23T17:35:53.111Z,1.05
2022-08-23T17:38:20.972Z,0.90
2022-08-23T17:40:48.245Z,0.95
2022-08-23T17:43:14.874Z,1.00
2022-08-23T17:45:45.609Z,0.98
2022-08-23T17:48:13.918Z,1.10
2022-08-23T17:50:43.587Z,1.20
2022-08-23T17:53:11.523Z,1.00
2022-08-23T17:55:39.462Z,1.10
2022-08-23T17:58:10.000Z,0.98
2022-08-23T18:00:39.061Z,0.90
2022-08-23T18:03:05.939Z,1.20
2022-08-23T18:05:33.946Z,0.82
2022-08-23T18:08:00.811Z,1.10
2022-08-23T18:10:27.557Z,1.20
2022-08-23T18:12:54.141Z,0.88
2022-08-23T18:15:20.739Z,1.40
2022-08-23T18:17:47.373Z,2.03
2022-08-23T18:20:14.159Z,0.93
2022-08-23T18:22:40.920Z,1.13
2022-08-23T18:25:10.074Z,0.57
2022-08-23T18:27:55.632Z,0.80
2022-08-23T18:30:22.228Z,1.08
2022-08-23T18:32:48.813Z,0.80
2022-08-23T18:35:15.614Z,1.35
2022-08-23T18:37:42.430Z,0.80
2022-08-23T18:40:10.481Z,0.80
2022-08-23T18:42:37.911Z,0.80
2022-08-23T18:45:06.082Z,0.90
2022-08-23T18:47:32.994Z,1.02
2022-08-23T18:49:59.571Z,0.63
2022-08-23T18:52:27.637Z,0.60
2022-08-23T18:54:57.731Z,1.10
2022-08-23T18:57:24.486Z,0.77
2022-08-23T18:59:51.512Z,0.85
2022-08-23T19:02:18.408Z,1.00
2022-08-23T19:04:46.265Z,1.27
2022-08-23T19:07:12.998Z,1.08
2022-08-23T19:09:39.595Z,1.50
2022-08-23T19:12:06.553Z,1.02
2022-08-23T19:14:35.712Z,1.05
2022-08-23T19:17:08.239Z,1.52
2022-08-23T19:19:35.898Z,1.00
2022-08-23T19:22:03.806Z,1.20
2022-08-23T19:24:30.801Z,1.20
2022-08-23T19:26:57.449Z,0.93
2022-08-23T19:29:24.128Z,1.27
2022-08-23T19:31:50.750Z,1.10
2022-08-23T19:34:19.728Z,1.40
2022-08-23T19:36:56.821Z,1.13
2022-08-23T19:39:27.833Z,1.17
2022-08-23T19:41:54.511Z,0.95
2022-08-23T19:44:21.420Z,1.50
2022-08-23T19:46:48.470Z,1.25
2022-08-23T19:49:15.744Z,0.80
2022-08-23T19:51:43.814Z,1.17
2022-08-23T19:54:12.898Z,1.20
2022-08-23T19:56:47.073Z,1.20
2022-08-23T19:59:19.611Z,1.15
2022-08-23T20:01:47.991Z,1.60
2022-08-23T20:04:16.286Z,1.25
2022-08-23T20:06:43.355Z,1.05
2022-08-23T20:09:10.126Z,1.55
2022-08-23T20:11:37.293Z,1.05
2022-08-23T20:14:05.435Z,1.25
2022-08-23T20:16:32.965Z,0.90
2022-08-23T20:19:00.288Z,1.02
2022-08-23T20:21:27.719Z,1.92
2022-08-23T20:24:04.424Z,1.23
2022-08-23T20:26:34.007Z,1.95
2022-08-23T20:29:05.567Z,1.30
2022-08-23T20:31:36.713Z,1.65
2022-08-23T20:34:05.895Z,1.40
2022-08-23T20:36:33.503Z,1.08
2022-08-23T20:39:01.566Z,1.17
2022-08-23T20:41:31.260Z,1.88
2022-08-23T20:43:58.931Z,1.70
2022-08-23T20:46:26.708Z,1.63
2022-08-23T20:48:54.044Z,1.30
2022-08-23T20:51:21.297Z,1.30
2022-08-23T20:53:48.064Z,1.50
2022-08-23T20:56:15.226Z,1.33
2022-08-23T20:58:42.414Z,1.17
2022-08-23T21:01:11.100Z,1.25
2022-08-23T21:03:39.006Z,1.45
2022-08-23T21:06:09.292Z,1.52
2022-08-23T21:08:42.528Z,1.33
2022-08-23T21:11:10.642Z,1.48
2022-08-23T21:13:41.406Z,1.13
2022-08-23T21:16:08.243Z,1.35
2022-08-23T21:18:34.965Z,1.13
2022-08-23T21:21:01.587Z,1.05
2022-08-23T21:23:28.189Z,1.45
2022-08-23T21:25:56.527Z,1.50
2022-08-23T21:28:24.314Z,1.17
2022-08-23T21:30:51.034Z,1.10
2022-08-23T21:33:18.225Z,1.20
2022-08-23T21:35:44.942Z,1.67
2022-08-23T21:38:11.664Z,1.42
2022-08-23T21:40:38.516Z,1.73
2022-08-23T21:43:05.374Z,1.55
2022-08-23T21:45:32.084Z,1.75
2022-08-23T21:47:58.820Z,1.83
2022-08-23T21:50:28.681Z,1.55
2022-08-23T21:53:03.833Z,1.40
2022-08-23T21:55:36.187Z,1.00
2022-08-23T21:58:04.119Z,1.80
2022-08-23T22:00:30.864Z,1.25
2022-08-23T22:02:57.592Z,2.65
2022-08-23T22:05:24.504Z,1.95
2022-08-23T22:07:52.020Z,2.10
2022-08-23T22:10:18.965Z,1.60
2022-08-23T22:12:45.530Z,1.75
2022-08-23T22:15:14.806Z,1.70
2022-08-23T22:17:41.366Z,1.67
2022-08-23T22:20:09.677Z,2.00
2022-08-23T22:22:37.278Z,1.60
2022-08-23T22:25:04.593Z,1.60
2022-08-23T22:27:32.864Z,3.10
2022-08-23T22:29:59.603Z,1.42
2022-08-23T22:32:26.780Z,1.55
2022-08-23T22:34:53.550Z,1.38
2022-08-23T22:37:20.248Z,1.70
2022-08-23T22:39:46.991Z,1.60
2022-08-23T22:42:13.947Z,1.55
2022-08-23T22:44:40.794Z,1.65
2022-08-23T22:47:07.640Z,1.80
2022-08-23T22:49:34.564Z,1.40
2022-08-23T22:52:01.152Z,1.90
2022-08-23T22:54:27.831Z,1.40
2022-08-23T22:56:54.730Z,1.75
2022-08-23T22:59:25.858Z,1.77
2022-08-23T23:01:58.205Z,2.03
2022-08-23T23:04:26.737Z,1.83
2022-08-23T23:06:54.754Z,1.52
2022-08-23T23:09:21.508Z,1.55
2022-08-23T23:11:48.775Z,1.80
2022-08-23T23:14:17.484Z,1.50
2022-08-23T23:16:44.981Z,1.88
2022-08-23T23:19:30.607Z,1.87
2022-08-23T23:21:58.453Z,1.85
2022-08-23T23:24:31.250Z,1.85
2022-08-23T23:26:59.228Z,1.90
2022-08-23T23:29:27.518Z,1.67
2022-08-23T23:31:55.649Z,1.50
2022-08-23T23:34:23.534Z,1.90
2022-08-23T23:36:50.128Z,2.15
2022-08-23T23:39:16.936Z,1.48
2022-08-23T23:41:43.636Z,1.52
2022-08-23T23:44:10.192Z,2.10
2022-08-23T23:46:36.959Z,1.73
2022-08-23T23:49:04.256Z,2.10
2022-08-23T23:51:31.609Z,2.15
2022-08-23T23:54:00.976Z,1.80
2022-08-23T23:56:29.376Z,2.25
2022-08-23T23:58:56.859Z,2.47
